sensor_id;sensor_type;location;lat;lon;timestamp;P1;durP1;ratioP1;P2;durP2;ratioP2
21581;SDS011;10952;50.836;4.348;2023-05-21T00:01:38;10.53;;;5.23;;
21581;SDS011;10952;50.836;4.348;2023-05-21T00:04:04;9.23;;;4.97;;
21581;SDS011;10952;50.836;4.348;2023-05-21T00:06:36;6.87;;;4.63;;
21581;SDS011;10952;50.836;4.348;2023-05-21T00:09:02;9.30;;;5.23;;
21581;SDS011;10952;50.836;4.348;2023-05-21T00:11:28;8.17;;;5.47;;
21581;SDS011;10952;50.836;4.348;2023-05-21T00:13:54;13.47;;;5.10;;
21581;SDS011;10952;50.836;4.348;2023-05-21T00:16:20;10.00;;;4.70;;
21581;SDS011;10952;50.836;4.348;2023-05-21T00:18:46;11.53;;;5.27;;
21581;SDS011;10952;50.836;4.348;2023-05-21T00:21:13;8.97;;;4.53;;
21581;SDS011;10952;50.836;4.348;2023-05-21T00:23:41;6.30;;;4.00;;
21581;SDS011;10952;50.836;4.348;2023-05-21T00:26:09;6.50;;;4.13;;
21581;SDS011;10952;50.836;4.348;2023-05-21T00:28:35;7.73;;;4.73;;
21581;SDS011;10952;50.836;4.348;2023-05-21T00:31:01;9.80;;;5.37;;
21581;SDS011;10952;50.836;4.348;2023-05-21T00:33:26;11.40;;;5.03;;
21581;SDS011;10952;50.836;4.348;2023-05-21T00:35:53;10.93;;;4.10;;
21581;SDS011;10952;50.836;4.348;2023-05-21T00:38:19;9.13;;;4.67;;
21581;SDS011;10952;50.836;4.348;2023-05-21T00:40:46;10.30;;;5.13;;
21581;SDS011;10952;50.836;4.348;2023-05-21T00:43:11;9.83;;;5.70;;
21581;SDS011;10952;50.836;4.348;2023-05-21T00:45:39;9.77;;;5.73;;
21581;SDS011;10952;50.836;4.348;2023-05-21T00:48:07;10.83;;;5.07;;
21581;SDS011;10952;50.836;4.348;2023-05-21T00:50:32;10.60;;;5.57;;
21581;SDS011;10952;50.836;4.348;2023-05-21T00:53:00;8.07;;;4.77;;
21581;SDS011;10952;50.836;4.348;2023-05-21T00:55:25;9.17;;;4.70;;
21581;SDS011;10952;50.836;4.348;2023-05-21T00:57:51;9.17;;;5.80;;
21581;SDS011;10952;50.836;4.348;2023-05-21T01:00:17;8.33;;;5.33;;
21581;SDS011;10952;50.836;4.348;2023-05-21T01:02:44;17.30;;;8.93;;
21581;SDS011;10952;50.836;4.348;2023-05-21T01:05:10;10.40;;;5.73;;
21581;SDS011;10952;50.836;4.348;2023-05-21T01:07:37;9.17;;;5.00;;
21581;SDS011;10952;50.836;4.348;2023-05-21T01:10:06;7.83;;;4.47;;
21581;SDS011;10952;50.836;4.348;2023-05-21T01:12:34;13.07;;;4.77;;
21581;SDS011;10952;50.836;4.348;2023-05-21T01:15:01;7.77;;;5.20;;
21581;SDS011;10952;50.836;4.348;2023-05-21T01:17:28;9.40;;;5.23;;
21581;SDS011;10952;50.836;4.348;2023-05-21T01:19:56;10.33;;;5.33;;
21581;SDS011;10952;50.836;4.348;2023-05-21T01:22:22;7.10;;;4.80;;
21581;SDS011;10952;50.836;4.348;2023-05-21T01:24:50;8.80;;;4.63;;
21581;SDS011;10952;50.836;4.348;2023-05-21T01:27:19;12.50;;;5.03;;
21581;SDS011;10952;50.836;4.348;2023-05-21T01:29:45;10.80;;;4.20;;
21581;SDS011;10952;50.836;4.348;2023-05-21T01:35:21;7.60;;;4.63;;
21581;SDS011;10952;50.836;4.348;2023-05-21T01:37:57;11.13;;;4.73;;
21581;SDS011;10952;50.836;4.348;2023-05-21T01:43:19;10.73;;;5.07;;
21581;SDS011;10952;50.836;4.348;2023-05-21T01:45:47;8.50;;;4.80;;
21581;SDS011;10952;50.836;4.348;2023-05-21T01:48:18;15.47;;;5.87;;
21581;SDS011;10952;50.836;4.348;2023-05-21T01:50:44;6.83;;;4.27;;
21581;SDS011;10952;50.836;4.348;2023-05-21T01:53:10;7.50;;;4.77;;
21581;SDS011;10952;50.836;4.348;2023-05-21T01:55:36;11.27;;;5.67;;
21581;SDS011;10952;50.836;4.348;2023-05-21T01:58:05;9.83;;;5.33;;
21581;SDS011;10952;50.836;4.348;2023-05-21T02:00:32;11.73;;;5.47;;
21581;SDS011;10952;50.836;4.348;2023-05-21T02:02:58;8.10;;;4.50;;
21581;SDS011;10952;50.836;4.348;2023-05-21T02:05:24;7.53;;;5.13;;
21581;SDS011;10952;50.836;4.348;2023-05-21T02:07:50;9.23;;;5.03;;
21581;SDS011;10952;50.836;4.348;2023-05-21T02:10:17;7.87;;;4.57;;
21581;SDS011;10952;50.836;4.348;2023-05-21T02:12:42;10.77;;;5.63;;
21581;SDS011;10952;50.836;4.348;2023-05-21T02:15:08;10.40;;;6.20;;
21581;SDS011;10952;50.836;4.348;2023-05-21T02:17:34;10.90;;;6.00;;
21581;SDS011;10952;50.836;4.348;2023-05-21T02:20:02;9.40;;;5.47;;
21581;SDS011;10952;50.836;4.348;2023-05-21T02:25:04;11.93;;;5.83;;
21581;SDS011;10952;50.836;4.348;2023-05-21T02:27:32;13.73;;;5.53;;
21581;SDS011;10952;50.836;4.348;2023-05-21T02:29:59;8.63;;;5.10;;
21581;SDS011;10952;50.836;4.348;2023-05-21T02:32:25;8.13;;;5.43;;
21581;SDS011;10952;50.836;4.348;2023-05-21T02:34:51;19.60;;;9.70;;
21581;SDS011;10952;50.836;4.348;2023-05-21T02:37:17;10.83;;;6.03;;
21581;SDS011;10952;50.836;4.348;2023-05-21T02:39:43;8.97;;;5.60;;
21581;SDS011;10952;50.836;4.348;2023-05-21T02:42:09;9.77;;;5.37;;
21581;SDS011;10952;50.836;4.348;2023-05-21T02:44:35;8.90;;;5.67;;
21581;SDS011;10952;50.836;4.348;2023-05-21T02:47:01;12.53;;;7.50;;
21581;SDS011;10952;50.836;4.348;2023-05-21T02:49:26;11.53;;;6.73;;
21581;SDS011;10952;50.836;4.348;2023-05-21T02:51:52;10.27;;;5.47;;
21581;SDS011;10952;50.836;4.348;2023-05-21T02:54:18;8.63;;;4.80;;
21581;SDS011;10952;50.836;4.348;2023-05-21T02:56:43;8.37;;;5.83;;
21581;SDS011;10952;50.836;4.348;2023-05-21T02:59:09;12.90;;;5.57;;
21581;SDS011;10952;50.836;4.348;2023-05-21T03:01:35;8.63;;;5.63;;
21581;SDS011;10952;50.836;4.348;2023-05-21T03:04:00;9.20;;;6.33;;
21581;SDS011;10952;50.836;4.348;2023-05-21T03:06:26;10.33;;;6.40;;
21581;SDS011;10952;50.836;4.348;2023-05-21T03:08:52;10.83;;;6.03;;
21581;SDS011;10952;50.836;4.348;2023-05-21T03:11:17;12.37;;;5.83;;
21581;SDS011;10952;50.836;4.348;2023-05-21T03:13:43;9.93;;;5.87;;
21581;SDS011;10952;50.836;4.348;2023-05-21T03:16:09;13.37;;;6.53;;
21581;SDS011;10952;50.836;4.348;2023-05-21T03:18:36;12.13;;;6.40;;
21581;SDS011;10952;50.836;4.348;2023-05-21T03:21:01;10.43;;;5.57;;
21581;SDS011;10952;50.836;4.348;2023-05-21T03:23:28;11.00;;;6.27;;
21581;SDS011;10952;50.836;4.348;2023-05-21T03:25:54;11.80;;;6.70;;
21581;SDS011;10952;50.836;4.348;2023-05-21T03:28:19;11.47;;;7.30;;
21581;SDS011;10952;50.836;4.348;2023-05-21T03:30:45;9.23;;;5.83;;
21581;SDS011;10952;50.836;4.348;2023-05-21T03:33:13;15.40;;;6.17;;
21581;SDS011;10952;50.836;4.348;2023-05-21T03:35:40;14.43;;;5.67;;
21581;SDS011;10952;50.836;4.348;2023-05-21T03:38:06;11.83;;;5.73;;
21581;SDS011;10952;50.836;4.348;2023-05-21T03:40:31;11.90;;;6.17;;
21581;SDS011;10952;50.836;4.348;2023-05-21T03:42:57;11.50;;;6.20;;
21581;SDS011;10952;50.836;4.348;2023-05-21T03:45:23;12.27;;;6.23;;
21581;SDS011;10952;50.836;4.348;2023-05-21T03:47:48;13.13;;;6.57;;
21581;SDS011;10952;50.836;4.348;2023-05-21T03:50:14;10.67;;;6.30;;
21581;SDS011;10952;50.836;4.348;2023-05-21T03:52:40;10.23;;;6.30;;
21581;SDS011;10952;50.836;4.348;2023-05-21T03:55:06;12.60;;;6.70;;
21581;SDS011;10952;50.836;4.348;2023-05-21T03:57:32;12.27;;;6.60;;
21581;SDS011;10952;50.836;4.348;2023-05-21T03:59:58;13.50;;;6.97;;
21581;SDS011;10952;50.836;4.348;2023-05-21T04:02:24;11.67;;;5.90;;
21581;SDS011;10952;50.836;4.348;2023-05-21T04:04:51;11.77;;;6.17;;
21581;SDS011;10952;50.836;4.348;2023-05-21T04:07:18;9.67;;;6.23;;
21581;SDS011;10952;50.836;4.348;2023-05-21T04:09:43;10.67;;;6.63;;
21581;SDS011;10952;50.836;4.348;2023-05-21T04:12:10;9.53;;;6.10;;
21581;SDS011;10952;50.836;4.348;2023-05-21T04:14:36;12.67;;;6.40;;
21581;SDS011;10952;50.836;4.348;2023-05-21T04:17:02;8.07;;;5.97;;
21581;SDS011;10952;50.836;4.348;2023-05-21T04:19:31;11.57;;;6.47;;
21581;SDS011;10952;50.836;4.348;2023-05-21T04:21:57;10.07;;;6.07;;
21581;SDS011;10952;50.836;4.348;2023-05-21T04:24:23;9.47;;;5.87;;
21581;SDS011;10952;50.836;4.348;2023-05-21T04:26:49;10.47;;;6.57;;
21581;SDS011;10952;50.836;4.348;2023-05-21T04:29:15;17.17;;;8.00;;
21581;SDS011;10952;50.836;4.348;2023-05-21T04:31:45;11.67;;;7.13;;
21581;SDS011;10952;50.836;4.348;2023-05-21T04:34:11;10.70;;;6.50;;
21581;SDS011;10952;50.836;4.348;2023-05-21T04:36:37;8.97;;;6.23;;
21581;SDS011;10952;50.836;4.348;2023-05-21T04:39:03;9.50;;;6.83;;
21581;SDS011;10952;50.836;4.348;2023-05-21T04:41:30;12.33;;;7.17;;
21581;SDS011;10952;50.836;4.348;2023-05-21T04:43:56;11.07;;;6.60;;
21581;SDS011;10952;50.836;4.348;2023-05-21T04:46:22;13.27;;;6.90;;
21581;SDS011;10952;50.836;4.348;2023-05-21T04:48:51;9.33;;;6.43;;
21581;SDS011;10952;50.836;4.348;2023-05-21T04:51:19;11.43;;;6.43;;
21581;SDS011;10952;50.836;4.348;2023-05-21T04:53:51;11.90;;;7.07;;
21581;SDS011;10952;50.836;4.348;2023-05-21T04:56:17;15.00;;;7.53;;
21581;SDS011;10952;50.836;4.348;2023-05-21T04:58:44;12.43;;;6.93;;
21581;SDS011;10952;50.836;4.348;2023-05-21T05:01:10;9.77;;;6.80;;
21581;SDS011;10952;50.836;4.348;2023-05-21T05:03:36;10.23;;;6.47;;
21581;SDS011;10952;50.836;4.348;2023-05-21T05:06:02;13.47;;;7.10;;
21581;SDS011;10952;50.836;4.348;2023-05-21T05:08:28;12.30;;;7.33;;
21581;SDS011;10952;50.836;4.348;2023-05-21T05:10:54;18.17;;;7.13;;
21581;SDS011;10952;50.836;4.348;2023-05-21T05:13:20;14.83;;;7.00;;
21581;SDS011;10952;50.836;4.348;2023-05-21T05:15:46;14.20;;;6.60;;
21581;SDS011;10952;50.836;4.348;2023-05-21T05:18:12;11.60;;;6.60;;
21581;SDS011;10952;50.836;4.348;2023-05-21T05:20:37;11.77;;;7.03;;
21581;SDS011;10952;50.836;4.348;2023-05-21T05:23:03;8.03;;;6.37;;
21581;SDS011;10952;50.836;4.348;2023-05-21T05:25:29;12.10;;;6.87;;
21581;SDS011;10952;50.836;4.348;2023-05-21T05:27:54;15.87;;;7.33;;
21581;SDS011;10952;50.836;4.348;2023-05-21T05:30:20;9.57;;;6.83;;
21581;SDS011;10952;50.836;4.348;2023-05-21T05:32:46;11.17;;;6.63;;
21581;SDS011;10952;50.836;4.348;2023-05-21T05:35:11;9.73;;;6.93;;
21581;SDS011;10952;50.836;4.348;2023-05-21T05:37:37;12.30;;;6.70;;
21581;SDS011;10952;50.836;4.348;2023-05-21T05:40:03;12.40;;;7.50;;
21581;SDS011;10952;50.836;4.348;2023-05-21T05:42:29;12.00;;;6.90;;
21581;SDS011;10952;50.836;4.348;2023-05-21T05:44:55;11.80;;;7.13;;
21581;SDS011;10952;50.836;4.348;2023-05-21T05:47:21;12.97;;;6.87;;
21581;SDS011;10952;50.836;4.348;2023-05-21T05:49:47;12.53;;;6.47;;
21581;SDS011;10952;50.836;4.348;2023-05-21T05:52:12;9.43;;;6.07;;
21581;SDS011;10952;50.836;4.348;2023-05-21T05:54:38;10.53;;;6.63;;
21581;SDS011;10952;50.836;4.348;2023-05-21T05:57:04;11.33;;;7.10;;
21581;SDS011;10952;50.836;4.348;2023-05-21T05:59:30;15.73;;;7.87;;
21581;SDS011;10952;50.836;4.348;2023-05-21T06:01:58;18.00;;;8.53;;
21581;SDS011;10952;50.836;4.348;2023-05-21T06:04:24;11.30;;;7.13;;
21581;SDS011;10952;50.836;4.348;2023-05-21T06:06:53;8.63;;;6.07;;
21581;SDS011;10952;50.836;4.348;2023-05-21T06:09:21;11.50;;;7.17;;
21581;SDS011;10952;50.836;4.348;2023-05-21T06:11:49;11.70;;;6.20;;
21581;SDS011;10952;50.836;4.348;2023-05-21T06:14:15;9.07;;;6.73;;
21581;SDS011;10952;50.836;4.348;2023-05-21T06:16:40;12.17;;;6.90;;
21581;SDS011;10952;50.836;4.348;2023-05-21T06:19:06;10.90;;;6.30;;
21581;SDS011;10952;50.836;4.348;2023-05-21T06:21:32;12.30;;;7.20;;
21581;SDS011;10952;50.836;4.348;2023-05-21T06:23:57;13.90;;;7.03;;
21581;SDS011;10952;50.836;4.348;2023-05-21T06:26:23;10.60;;;7.20;;
21581;SDS011;10952;50.836;4.348;2023-05-21T06:28:49;14.53;;;6.77;;
21581;SDS011;10952;50.836;4.348;2023-05-21T06:31:15;11.43;;;7.40;;
21581;SDS011;10952;50.836;4.348;2023-05-21T06:33:40;13.00;;;7.63;;
21581;SDS011;10952;50.836;4.348;2023-05-21T06:36:06;10.30;;;7.20;;
21581;SDS011;10952;50.836;4.348;2023-05-21T06:38:32;13.00;;;7.33;;
21581;SDS011;10952;50.836;4.348;2023-05-21T06:40:58;14.40;;;7.50;;
21581;SDS011;10952;50.836;4.348;2023-05-21T06:43:23;11.10;;;6.60;;
21581;SDS011;10952;50.836;4.348;2023-05-21T06:45:49;10.50;;;6.73;;
21581;SDS011;10952;50.836;4.348;2023-05-21T06:48:15;9.17;;;6.70;;
21581;SDS011;10952;50.836;4.348;2023-05-21T06:50:41;10.97;;;6.57;;
21581;SDS011;10952;50.836;4.348;2023-05-21T06:53:07;10.93;;;7.03;;
21581;SDS011;10952;50.836;4.348;2023-05-21T06:55:34;9.77;;;6.27;;
21581;SDS011;10952;50.836;4.348;2023-05-21T06:58:01;12.57;;;6.50;;
21581;SDS011;10952;50.836;4.348;2023-05-21T07:00:26;14.37;;;7.30;;
21581;SDS011;10952;50.836;4.348;2023-05-21T07:02:52;8.90;;;6.07;;
21581;SDS011;10952;50.836;4.348;2023-05-21T07:05:18;12.77;;;6.43;;
21581;SDS011;10952;50.836;4.348;2023-05-21T07:07:44;8.43;;;6.17;;
21581;SDS011;10952;50.836;4.348;2023-05-21T07:10:10;10.67;;;6.80;;
21581;SDS011;10952;50.836;4.348;2023-05-21T07:12:35;12.33;;;6.73;;
21581;SDS011;10952;50.836;4.348;2023-05-21T07:15:01;7.87;;;6.13;;
21581;SDS011;10952;50.836;4.348;2023-05-21T07:17:27;11.33;;;6.70;;
21581;SDS011;10952;50.836;4.348;2023-05-21T07:19:52;11.13;;;6.73;;
21581;SDS011;10952;50.836;4.348;2023-05-21T07:22:18;9.37;;;6.20;;
21581;SDS011;10952;50.836;4.348;2023-05-21T07:24:44;9.90;;;6.50;;
21581;SDS011;10952;50.836;4.348;2023-05-21T07:27:09;9.80;;;7.07;;
21581;SDS011;10952;50.836;4.348;2023-05-21T07:29:35;10.50;;;6.00;;
21581;SDS011;10952;50.836;4.348;2023-05-21T07:32:01;10.10;;;6.50;;
21581;SDS011;10952;50.836;4.348;2023-05-21T07:34:27;12.67;;;6.87;;
21581;SDS011;10952;50.836;4.348;2023-05-21T07:36:52;10.27;;;6.90;;
21581;SDS011;10952;50.836;4.348;2023-05-21T07:39:18;9.60;;;6.77;;
21581;SDS011;10952;50.836;4.348;2023-05-21T07:41:44;12.73;;;7.40;;
21581;SDS011;10952;50.836;4.348;2023-05-21T07:44:09;11.77;;;6.97;;
21581;SDS011;10952;50.836;4.348;2023-05-21T07:46:35;10.33;;;6.63;;
21581;SDS011;10952;50.836;4.348;2023-05-21T07:49:01;10.50;;;6.53;;
21581;SDS011;10952;50.836;4.348;2023-05-21T07:51:27;10.57;;;6.87;;
21581;SDS011;10952;50.836;4.348;2023-05-21T07:53:53;12.00;;;7.47;;
21581;SDS011;10952;50.836;4.348;2023-05-21T07:56:18;10.97;;;7.67;;
21581;SDS011;10952;50.836;4.348;2023-05-21T07:58:45;11.07;;;7.03;;
21581;SDS011;10952;50.836;4.348;2023-05-21T08:01:11;11.60;;;7.63;;
21581;SDS011;10952;50.836;4.348;2023-05-21T08:03:37;10.90;;;7.47;;
21581;SDS011;10952;50.836;4.348;2023-05-21T08:06:02;12.57;;;8.40;;
21581;SDS011;10952;50.836;4.348;2023-05-21T08:08:28;14.03;;;7.17;;
21581;SDS011;10952;50.836;4.348;2023-05-21T08:10:54;12.23;;;7.53;;
21581;SDS011;10952;50.836;4.348;2023-05-21T08:13:21;11.07;;;7.37;;
21581;SDS011;10952;50.836;4.348;2023-05-21T08:15:47;15.60;;;8.87;;
21581;SDS011;10952;50.836;4.348;2023-05-21T08:18:13;11.37;;;7.80;;
21581;SDS011;10952;50.836;4.348;2023-05-21T08:20:39;12.67;;;8.80;;
21581;SDS011;10952;50.836;4.348;2023-05-21T08:23:05;9.80;;;7.73;;
21581;SDS011;10952;50.836;4.348;2023-05-21T08:25:31;12.87;;;8.03;;
21581;SDS011;10952;50.836;4.348;2023-05-21T08:27:57;10.73;;;7.90;;
21581;SDS011;10952;50.836;4.348;2023-05-21T08:30:23;10.50;;;8.03;;
21581;SDS011;10952;50.836;4.348;2023-05-21T08:32:48;14.10;;;8.07;;
21581;SDS011;10952;50.836;4.348;2023-05-21T08:35:14;15.43;;;8.90;;
21581;SDS011;10952;50.836;4.348;2023-05-21T08:37:40;16.90;;;8.40;;
21581;SDS011;10952;50.836;4.348;2023-05-21T08:40:06;14.60;;;8.93;;
21581;SDS011;10952;50.836;4.348;2023-05-21T08:42:41;12.37;;;8.23;;
21581;SDS011;10952;50.836;4.348;2023-05-21T08:45:11;16.23;;;8.33;;
21581;SDS011;10952;50.836;4.348;2023-05-21T08:47:40;11.87;;;7.57;;
21581;SDS011;10952;50.836;4.348;2023-05-21T08:50:08;10.60;;;8.33;;
21581;SDS011;10952;50.836;4.348;2023-05-21T08:52:35;14.83;;;8.80;;
21581;SDS011;10952;50.836;4.348;2023-05-21T08:55:05;14.07;;;8.53;;
21581;SDS011;10952;50.836;4.348;2023-05-21T08:57:31;15.73;;;8.57;;
21581;SDS011;10952;50.836;4.348;2023-05-21T08:59:58;11.57;;;8.40;;
21581;SDS011;10952;50.836;4.348;2023-05-21T09:02:24;18.57;;;9.53;;
21581;SDS011;10952;50.836;4.348;2023-05-21T09:04:51;13.80;;;9.53;;
21581;SDS011;10952;50.836;4.348;2023-05-21T09:07:21;13.63;;;8.70;;
21581;SDS011;10952;50.836;4.348;2023-05-21T09:09:55;12.87;;;9.57;;
21581;SDS011;10952;50.836;4.348;2023-05-21T09:12:23;13.27;;;9.30;;
21581;SDS011;10952;50.836;4.348;2023-05-21T09:14:52;14.03;;;9.40;;
21581;SDS011;10952;50.836;4.348;2023-05-21T09:17:18;14.60;;;10.13;;
21581;SDS011;10952;50.836;4.348;2023-05-21T09:22:44;13.10;;;9.57;;
21581;SDS011;10952;50.836;4.348;2023-05-21T09:25:15;13.07;;;9.83;;
21581;SDS011;10952;50.836;4.348;2023-05-21T09:27:56;12.43;;;9.30;;
21581;SDS011;10952;50.836;4.348;2023-05-21T09:30:22;14.27;;;9.53;;
21581;SDS011;10952;50.836;4.348;2023-05-21T09:32:55;17.27;;;9.80;;
21581;SDS011;10952;50.836;4.348;2023-05-21T09:35:22;16.67;;;9.13;;
21581;SDS011;10952;50.836;4.348;2023-05-21T09:37:48;15.07;;;9.47;;
21581;SDS011;10952;50.836;4.348;2023-05-21T09:40:17;16.93;;;10.07;;
21581;SDS011;10952;50.836;4.348;2023-05-21T09:45:19;17.37;;;9.43;;
21581;SDS011;10952;50.836;4.348;2023-05-21T09:47:46;15.75;;;9.60;;
21581;SDS011;10952;50.836;4.348;2023-05-21T09:50:17;12.65;;;8.90;;
21581;SDS011;10952;50.836;4.348;2023-05-21T09:52:44;13.95;;;8.63;;
21581;SDS011;10952;50.836;4.348;2023-05-21T09:55:11;12.88;;;8.90;;
21581;SDS011;10952;50.836;4.348;2023-05-21T09:57:41;12.38;;;9.75;;
21581;SDS011;10952;50.836;4.348;2023-05-21T10:02:44;13.85;;;9.48;;
21581;SDS011;10952;50.836;4.348;2023-05-21T10:05:12;13.15;;;9.60;;
21581;SDS011;10952;50.836;4.348;2023-05-21T10:07:49;15.75;;;9.63;;
21581;SDS011;10952;50.836;4.348;2023-05-21T10:10:17;13.43;;;10.30;;
21581;SDS011;10952;50.836;4.348;2023-05-21T10:12:50;15.80;;;10.02;;
21581;SDS011;10952;50.836;4.348;2023-05-21T10:15:24;13.93;;;8.90;;
21581;SDS011;10952;50.836;4.348;2023-05-21T10:17:55;13.55;;;10.15;;
21581;SDS011;10952;50.836;4.348;2023-05-21T10:20:22;14.38;;;10.15;;
21581;SDS011;10952;50.836;4.348;2023-05-21T10:22:49;13.30;;;9.90;;
21581;SDS011;10952;50.836;4.348;2023-05-21T10:25:15;14.18;;;10.02;;
21581;SDS011;10952;50.836;4.348;2023-05-21T10:27:43;14.68;;;9.82;;
21581;SDS011;10952;50.836;4.348;2023-05-21T10:30:09;15.95;;;10.25;;
21581;SDS011;10952;50.836;4.348;2023-05-21T10:32:35;15.10;;;10.63;;
21581;SDS011;10952;50.836;4.348;2023-05-21T10:35:04;12.50;;;10.15;;
21581;SDS011;10952;50.836;4.348;2023-05-21T10:37:31;19.10;;;10.35;;
21581;SDS011;10952;50.836;4.348;2023-05-21T10:39:57;13.65;;;10.10;;
21581;SDS011;10952;50.836;4.348;2023-05-21T10:59:04;14.93;;;10.70;;
21581;SDS011;10952;50.836;4.348;2023-05-21T11:01:46;18.42;;;11.35;;
21581;SDS011;10952;50.836;4.348;2023-05-21T11:04:20;18.25;;;11.32;;
21581;SDS011;10952;50.836;4.348;2023-05-21T11:06:52;15.32;;;10.48;;
21581;SDS011;10952;50.836;4.348;2023-05-21T11:09:18;13.05;;;10.65;;
21581;SDS011;10952;50.836;4.348;2023-05-21T11:11:44;17.92;;;11.48;;
21581;SDS011;10952;50.836;4.348;2023-05-21T11:14:27;18.33;;;10.68;;
21581;SDS011;10952;50.836;4.348;2023-05-21T11:17:11;12.73;;;10.27;;
21581;SDS011;10952;50.836;4.348;2023-05-21T11:19:44;17.33;;;11.20;;
21581;SDS011;10952;50.836;4.348;2023-05-21T11:24:53;16.55;;;12.85;;
21581;SDS011;10952;50.836;4.348;2023-05-21T11:27:39;19.77;;;12.90;;
21581;SDS011;10952;50.836;4.348;2023-05-21T11:30:06;15.82;;;13.35;;
21581;SDS011;10952;50.836;4.348;2023-05-21T11:32:39;18.00;;;12.73;;
21581;SDS011;10952;50.836;4.348;2023-05-21T11:35:35;15.25;;;12.48;;
21581;SDS011;10952;50.836;4.348;2023-05-21T11:38:10;18.20;;;12.95;;
21581;SDS011;10952;50.836;4.348;2023-05-21T11:40:35;20.05;;;13.63;;
21581;SDS011;10952;50.836;4.348;2023-05-21T11:43:01;21.33;;;12.90;;
21581;SDS011;10952;50.836;4.348;2023-05-21T11:45:28;19.67;;;14.32;;
21581;SDS011;10952;50.836;4.348;2023-05-21T11:47:55;19.58;;;14.25;;
21581;SDS011;10952;50.836;4.348;2023-05-21T11:50:21;17.45;;;13.73;;
21581;SDS011;10952;50.836;4.348;2023-05-21T11:52:47;19.27;;;12.35;;
21581;SDS011;10952;50.836;4.348;2023-05-21T11:55:13;16.85;;;12.82;;
21581;SDS011;10952;50.836;4.348;2023-05-21T11:57:42;18.65;;;13.95;;
21581;SDS011;10952;50.836;4.348;2023-05-21T12:00:12;18.50;;;13.45;;
21581;SDS011;10952;50.836;4.348;2023-05-21T12:02:43;21.27;;;14.43;;
21581;SDS011;10952;50.836;4.348;2023-05-21T12:05:10;23.98;;;16.42;;
21581;SDS011;10952;50.836;4.348;2023-05-21T12:07:36;25.90;;;18.73;;
21581;SDS011;10952;50.836;4.348;2023-05-21T12:10:03;23.42;;;16.52;;
21581;SDS011;10952;50.836;4.348;2023-05-21T12:12:30;19.50;;;13.45;;
21581;SDS011;10952;50.836;4.348;2023-05-21T12:14:57;16.77;;;12.98;;
21581;SDS011;10952;50.836;4.348;2023-05-21T12:17:25;18.13;;;14.40;;
21581;SDS011;10952;50.836;4.348;2023-05-21T12:19:55;15.88;;;12.20;;
21581;SDS011;10952;50.836;4.348;2023-05-21T12:22:22;17.38;;;13.52;;
21581;SDS011;10952;50.836;4.348;2023-05-21T12:24:48;16.90;;;12.07;;
21581;SDS011;10952;50.836;4.348;2023-05-21T12:27:15;23.50;;;14.27;;
21581;SDS011;10952;50.836;4.348;2023-05-21T12:29:42;21.85;;;13.63;;
21581;SDS011;10952;50.836;4.348;2023-05-21T12:32:10;19.33;;;13.32;;
21581;SDS011;10952;50.836;4.348;2023-05-21T12:34:50;20.27;;;13.20;;
21581;SDS011;10952;50.836;4.348;2023-05-21T12:37:21;16.05;;;11.80;;
21581;SDS011;10952;50.836;4.348;2023-05-21T12:39:49;24.60;;;14.50;;
21581;SDS011;10952;50.836;4.348;2023-05-21T12:42:29;21.45;;;14.30;;
21581;SDS011;10952;50.836;4.348;2023-05-21T12:44:58;20.08;;;14.15;;
21581;SDS011;10952;50.836;4.348;2023-05-21T12:47:25;24.20;;;14.70;;
21581;SDS011;10952;50.836;4.348;2023-05-21T12:49:52;20.05;;;15.23;;
21581;SDS011;10952;50.836;4.348;2023-05-21T12:52:21;19.83;;;14.05;;
21581;SDS011;10952;50.836;4.348;2023-05-21T12:54:51;21.00;;;14.48;;
21581;SDS011;10952;50.836;4.348;2023-05-21T12:57:18;17.48;;;13.80;;
21581;SDS011;10952;50.836;4.348;2023-05-21T12:59:54;20.83;;;13.77;;
21581;SDS011;10952;50.836;4.348;2023-05-21T13:02:28;19.08;;;15.18;;
21581;SDS011;10952;50.836;4.348;2023-05-21T13:05:14;24.85;;;14.57;;
21581;SDS011;10952;50.836;4.348;2023-05-21T13:07:41;21.45;;;14.70;;
21581;SDS011;10952;50.836;4.348;2023-05-21T13:10:10;20.75;;;13.45;;
21581;SDS011;10952;50.836;4.348;2023-05-21T13:12:37;18.75;;;13.70;;
21581;SDS011;10952;50.836;4.348;2023-05-21T13:15:03;20.33;;;14.05;;
21581;SDS011;10952;50.836;4.348;2023-05-21T13:17:31;18.45;;;14.00;;
21581;SDS011;10952;50.836;4.348;2023-05-21T13:22:38;16.88;;;13.05;;
21581;SDS011;10952;50.836;4.348;2023-05-21T13:25:08;20.48;;;13.15;;
21581;SDS011;10952;50.836;4.348;2023-05-21T13:27:39;20.63;;;13.50;;
21581;SDS011;10952;50.836;4.348;2023-05-21T13:30:06;23.67;;;13.35;;
21581;SDS011;10952;50.836;4.348;2023-05-21T13:32:32;17.08;;;13.45;;
21581;SDS011;10952;50.836;4.348;2023-05-21T13:34:58;21.13;;;13.63;;
21581;SDS011;10952;50.836;4.348;2023-05-21T13:37:24;18.02;;;13.07;;
21581;SDS011;10952;50.836;4.348;2023-05-21T13:39:50;17.58;;;12.77;;
21581;SDS011;10952;50.836;4.348;2023-05-21T13:42:15;18.95;;;13.63;;
21581;SDS011;10952;50.836;4.348;2023-05-21T13:44:41;19.23;;;13.30;;
21581;SDS011;10952;50.836;4.348;2023-05-21T13:47:07;21.50;;;13.98;;
21581;SDS011;10952;50.836;4.348;2023-05-21T13:49:34;41.72;;;15.23;;
21581;SDS011;10952;50.836;4.348;2023-05-21T13:52:01;21.85;;;14.32;;
21581;SDS011;10952;50.836;4.348;2023-05-21T13:54:27;21.92;;;13.98;;
21581;SDS011;10952;50.836;4.348;2023-05-21T13:56:53;18.55;;;13.57;;
21581;SDS011;10952;50.836;4.348;2023-05-21T13:59:20;17.30;;;13.82;;
21581;SDS011;10952;50.836;4.348;2023-05-21T14:01:46;18.25;;;13.20;;
21581;SDS011;10952;50.836;4.348;2023-05-21T14:04:13;23.10;;;13.70;;
21581;SDS011;10952;50.836;4.348;2023-05-21T14:06:41;18.60;;;13.07;;
21581;SDS011;10952;50.836;4.348;2023-05-21T14:09:06;19.20;;;12.93;;
21581;SDS011;10952;50.836;4.348;2023-05-21T14:11:32;15.40;;;12.43;;
21581;SDS011;10952;50.836;4.348;2023-05-21T14:13:59;20.63;;;13.88;;
21581;SDS011;10952;50.836;4.348;2023-05-21T14:16:25;19.52;;;13.38;;
21581;SDS011;10952;50.836;4.348;2023-05-21T14:18:54;18.98;;;12.98;;
21581;SDS011;10952;50.836;4.348;2023-05-21T14:21:23;17.13;;;12.50;;
21581;SDS011;10952;50.836;4.348;2023-05-21T14:23:49;19.75;;;12.88;;
21581;SDS011;10952;50.836;4.348;2023-05-21T14:26:15;21.85;;;13.52;;
21581;SDS011;10952;50.836;4.348;2023-05-21T14:28:41;19.73;;;13.40;;
21581;SDS011;10952;50.836;4.348;2023-05-21T14:31:07;19.83;;;14.23;;
21581;SDS011;10952;50.836;4.348;2023-05-21T14:33:34;18.30;;;12.60;;
21581;SDS011;10952;50.836;4.348;2023-05-21T14:36:01;20.67;;;13.00;;
21581;SDS011;10952;50.836;4.348;2023-05-21T14:38:26;19.80;;;12.55;;
21581;SDS011;10952;50.836;4.348;2023-05-21T14:40:52;16.95;;;12.27;;
21581;SDS011;10952;50.836;4.348;2023-05-21T14:43:18;21.10;;;13.35;;
21581;SDS011;10952;50.836;4.348;2023-05-21T14:45:44;16.88;;;12.23;;
21581;SDS011;10952;50.836;4.348;2023-05-21T14:48:10;15.93;;;12.02;;
21581;SDS011;10952;50.836;4.348;2023-05-21T14:50:36;17.55;;;12.88;;
21581;SDS011;10952;50.836;4.348;2023-05-21T14:53:06;23.80;;;13.15;;
21581;SDS011;10952;50.836;4.348;2023-05-21T14:55:33;21.95;;;13.57;;
21581;SDS011;10952;50.836;4.348;2023-05-21T14:58:00;21.92;;;13.60;;
21581;SDS011;10952;50.836;4.348;2023-05-21T15:00:27;15.70;;;12.48;;
21581;SDS011;10952;50.836;4.348;2023-05-21T15:02:52;17.30;;;12.70;;
21581;SDS011;10952;50.836;4.348;2023-05-21T15:05:18;18.45;;;12.20;;
21581;SDS011;10952;50.836;4.348;2023-05-21T15:07:44;20.77;;;12.90;;
21581;SDS011;10952;50.836;4.348;2023-05-21T15:10:10;17.10;;;12.40;;
21581;SDS011;10952;50.836;4.348;2023-05-21T15:12:37;19.38;;;12.45;;